sensor_id;sensor_type;location;lat;lon;timestamp;P1;durP1;ratioP1;P2;durP2;ratioP2
39018;SDS011;24786;51.984;5.872;2022-11-28T00:00:59;11.75;;;7.03;;
39018;SDS011;24786;51.984;5.872;2022-11-28T00:03:25;9.30;;;7.28;;
39018;SDS011;24786;51.984;5.872;2022-11-28T00:05:51;11.38;;;7.15;;
39018;SDS011;24786;51.984;5.872;2022-11-28T00:08:17;9.55;;;7.00;;
39018;SDS011;24786;51.984;5.872;2022-11-28T00:10:42;12.40;;;7.13;;
39018;SDS011;24786;51.984;5.872;2022-11-28T00:13:08;11.60;;;7.03;;
39018;SDS011;24786;51.984;5.872;2022-11-28T00:15:34;8.32;;;6.57;;
39018;SDS011;24786;51.984;5.872;2022-11-28T00:18:00;9.20;;;6.60;;
39018;SDS011;24786;51.984;5.872;2022-11-28T00:20:25;10.25;;;6.63;;
39018;SDS011;24786;51.984;5.872;2022-11-28T00:22:51;12.48;;;7.53;;
39018;SDS011;24786;51.984;5.872;2022-11-28T00:25:17;11.70;;;7.35;;
39018;SDS011;24786;51.984;5.872;2022-11-28T00:27:43;10.07;;;7.32;;
39018;SDS011;24786;51.984;5.872;2022-11-28T00:30:08;11.75;;;7.88;;
39018;SDS011;24786;51.984;5.872;2022-11-28T00:32:34;12.00;;;7.60;;
39018;SDS011;24786;51.984;5.872;2022-11-28T00:35:00;11.15;;;8.32;;
39018;SDS011;24786;51.984;5.872;2022-11-28T00:37:25;9.75;;;6.85;;
39018;SDS011;24786;51.984;5.872;2022-11-28T00:39:51;11.70;;;7.72;;
39018;SDS011;24786;51.984;5.872;2022-11-28T00:42:16;11.10;;;7.18;;
39018;SDS011;24786;51.984;5.872;2022-11-28T00:44:45;8.80;;;6.53;;
39018;SDS011;24786;51.984;5.872;2022-11-28T00:47:10;11.32;;;6.30;;
39018;SDS011;24786;51.984;5.872;2022-11-28T00:49:36;10.55;;;7.22;;
39018;SDS011;24786;51.984;5.872;2022-11-28T00:52:02;10.95;;;6.65;;
39018;SDS011;24786;51.984;5.872;2022-11-28T00:54:27;11.32;;;6.90;;
39018;SDS011;24786;51.984;5.872;2022-11-28T00:56:53;10.85;;;6.90;;
39018;SDS011;24786;51.984;5.872;2022-11-28T00:59:19;12.88;;;6.70;;
39018;SDS011;24786;51.984;5.872;2022-11-28T01:01:44;10.90;;;7.05;;
39018;SDS011;24786;51.984;5.872;2022-11-28T01:04:12;8.85;;;6.30;;
39018;SDS011;24786;51.984;5.872;2022-11-28T01:06:43;8.55;;;6.43;;
39018;SDS011;24786;51.984;5.872;2022-11-28T01:09:15;10.57;;;6.18;;
39018;SDS011;24786;51.984;5.872;2022-11-28T01:11:42;9.50;;;5.93;;
39018;SDS011;24786;51.984;5.872;2022-11-28T01:14:09;9.35;;;6.22;;
39018;SDS011;24786;51.984;5.872;2022-11-28T01:16:35;8.43;;;5.65;;
39018;SDS011;24786;51.984;5.872;2022-11-28T01:19:01;9.13;;;5.63;;
39018;SDS011;24786;51.984;5.872;2022-11-28T01:21:27;9.18;;;5.75;;
39018;SDS011;24786;51.984;5.872;2022-11-28T01:23:53;12.55;;;6.50;;
39018;SDS011;24786;51.984;5.872;2022-11-28T01:26:20;7.90;;;5.88;;
39018;SDS011;24786;51.984;5.872;2022-11-28T01:28:48;9.13;;;6.30;;
39018;SDS011;24786;51.984;5.872;2022-11-28T01:31:15;11.35;;;6.40;;
39018;SDS011;24786;51.984;5.872;2022-11-28T01:33:43;10.85;;;6.05;;
39018;SDS011;24786;51.984;5.872;2022-11-28T01:36:09;9.98;;;6.38;;
39018;SDS011;24786;51.984;5.872;2022-11-28T01:38:36;7.70;;;5.43;;
39018;SDS011;24786;51.984;5.872;2022-11-28T01:41:01;9.85;;;5.80;;
39018;SDS011;24786;51.984;5.872;2022-11-28T01:43:27;8.85;;;5.25;;
39018;SDS011;24786;51.984;5.872;2022-11-28T01:45:53;8.15;;;5.47;;
39018;SDS011;24786;51.984;5.872;2022-11-28T01:48:26;8.55;;;5.90;;
39018;SDS011;24786;51.984;5.872;2022-11-28T01:50:59;8.07;;;5.30;;
39018;SDS011;24786;51.984;5.872;2022-11-28T01:53:27;11.25;;;5.43;;
39018;SDS011;24786;51.984;5.872;2022-11-28T01:55:57;11.20;;;5.68;;
39018;SDS011;24786;51.984;5.872;2022-11-28T01:58:27;9.73;;;5.28;;
39018;SDS011;24786;51.984;5.872;2022-11-28T02:00:54;8.65;;;5.13;;
39018;SDS011;24786;51.984;5.872;2022-11-28T02:03:22;8.07;;;5.32;;
39018;SDS011;24786;51.984;5.872;2022-11-28T02:05:51;8.80;;;5.22;;
39018;SDS011;24786;51.984;5.872;2022-11-28T02:08:18;6.38;;;4.72;;
39018;SDS011;24786;51.984;5.872;2022-11-28T02:18:49;7.93;;;5.63;;
39018;SDS011;24786;51.984;5.872;2022-11-28T02:29:30;7.90;;;5.40;;
39018;SDS011;24786;51.984;5.872;2022-11-28T02:34:57;7.93;;;5.50;;
39018;SDS011;24786;51.984;5.872;2022-11-28T02:37:31;7.05;;;4.93;;
39018;SDS011;24786;51.984;5.872;2022-11-28T02:40:06;6.40;;;5.18;;
39018;SDS011;24786;51.984;5.872;2022-11-28T02:48:35;7.32;;;5.70;;
39018;SDS011;24786;51.984;5.872;2022-11-28T02:51:19;7.50;;;5.40;;
39018;SDS011;24786;51.984;5.872;2022-11-28T02:54:16;12.27;;;5.97;;
39018;SDS011;24786;51.984;5.872;2022-11-28T02:56:47;8.07;;;5.97;;
39018;SDS011;24786;51.984;5.872;2022-11-28T03:02:01;7.75;;;5.70;;
39018;SDS011;24786;51.984;5.872;2022-11-28T03:16:13;9.20;;;5.70;;
39018;SDS011;24786;51.984;5.872;2022-11-28T03:19:04;10.13;;;5.60;;
39018;SDS011;24786;51.984;5.872;2022-11-28T03:21:38;11.95;;;7.15;;
39018;SDS011;24786;51.984;5.872;2022-11-28T03:24:47;11.63;;;6.95;;
39018;SDS011;24786;51.984;5.872;2022-11-28T03:27:25;8.63;;;6.22;;
39018;SDS011;24786;51.984;5.872;2022-11-28T03:30:10;9.20;;;6.47;;
39018;SDS011;24786;51.984;5.872;2022-11-28T03:32:45;8.77;;;5.93;;
39018;SDS011;24786;51.984;5.872;2022-11-28T03:35:19;10.10;;;5.68;;
39018;SDS011;24786;51.984;5.872;2022-11-28T03:37:50;8.38;;;5.47;;
39018;SDS011;24786;51.984;5.872;2022-11-28T03:40:21;6.80;;;4.68;;
39018;SDS011;24786;51.984;5.872;2022-11-28T03:42:53;7.30;;;4.95;;
39018;SDS011;24786;51.984;5.872;2022-11-28T03:45:25;6.35;;;5.25;;
39018;SDS011;24786;51.984;5.872;2022-11-28T03:47:56;7.32;;;5.00;;
39018;SDS011;24786;51.984;5.872;2022-11-28T03:50:26;7.40;;;5.07;;
39018;SDS011;24786;51.984;5.872;2022-11-28T03:53:08;9.43;;;5.88;;
39018;SDS011;24786;51.984;5.872;2022-11-28T04:00:48;9.05;;;5.40;;
39018;SDS011;24786;51.984;5.872;2022-11-28T04:03:27;8.43;;;5.43;;
39018;SDS011;24786;51.984;5.872;2022-11-28T04:08:53;9.27;;;6.10;;
39018;SDS011;24786;51.984;5.872;2022-11-28T04:11:24;9.77;;;6.32;;
39018;SDS011;24786;51.984;5.872;2022-11-28T04:14:06;10.20;;;6.78;;
39018;SDS011;24786;51.984;5.872;2022-11-28T04:21:51;10.40;;;7.07;;
39018;SDS011;24786;51.984;5.872;2022-11-28T04:24:40;9.90;;;6.97;;
39018;SDS011;24786;51.984;5.872;2022-11-28T04:27:12;10.98;;;7.20;;
39018;SDS011;24786;51.984;5.872;2022-11-28T04:29:45;8.68;;;6.35;;
39018;SDS011;24786;51.984;5.872;2022-11-28T04:32:13;10.50;;;7.38;;
39018;SDS011;24786;51.984;5.872;2022-11-28T04:34:42;9.95;;;6.45;;
39018;SDS011;24786;51.984;5.872;2022-11-28T04:37:09;12.15;;;7.20;;
39018;SDS011;24786;51.984;5.872;2022-11-28T04:39:38;8.18;;;6.32;;
39018;SDS011;24786;51.984;5.872;2022-11-28T04:42:09;10.18;;;7.30;;
39018;SDS011;24786;51.984;5.872;2022-11-28T04:47:23;10.82;;;6.88;;
39018;SDS011;24786;51.984;5.872;2022-11-28T04:49:50;10.20;;;7.10;;
39018;SDS011;24786;51.984;5.872;2022-11-28T04:55:27;9.48;;;6.97;;
39018;SDS011;24786;51.984;5.872;2022-11-28T04:58:10;8.77;;;6.80;;
39018;SDS011;24786;51.984;5.872;2022-11-28T05:00:43;9.52;;;6.70;;
39018;SDS011;24786;51.984;5.872;2022-11-28T05:03:11;8.93;;;6.63;;
39018;SDS011;24786;51.984;5.872;2022-11-28T05:05:47;9.52;;;6.70;;
39018;SDS011;24786;51.984;5.872;2022-11-28T05:08:15;9.07;;;6.80;;
39018;SDS011;24786;51.984;5.872;2022-11-28T05:10:42;8.38;;;6.20;;
39018;SDS011;24786;51.984;5.872;2022-11-28T05:13:07;8.73;;;6.57;;
39018;SDS011;24786;51.984;5.872;2022-11-28T05:15:33;10.65;;;7.18;;
39018;SDS011;24786;51.984;5.872;2022-11-28T05:17:59;10.07;;;6.47;;
39018;SDS011;24786;51.984;5.872;2022-11-28T05:20:25;8.85;;;6.00;;
39018;SDS011;24786;51.984;5.872;2022-11-28T05:22:51;8.93;;;6.50;;
39018;SDS011;24786;51.984;5.872;2022-11-28T05:25:16;7.72;;;6.20;;
39018;SDS011;24786;51.984;5.872;2022-11-28T05:27:42;8.68;;;6.30;;
39018;SDS011;24786;51.984;5.872;2022-11-28T05:30:08;8.85;;;5.90;;
39018;SDS011;24786;51.984;5.872;2022-11-28T05:32:34;8.60;;;6.18;;
39018;SDS011;24786;51.984;5.872;2022-11-28T05:35:00;10.35;;;6.70;;
39018;SDS011;24786;51.984;5.872;2022-11-28T05:37:26;7.00;;;5.68;;
39018;SDS011;24786;51.984;5.872;2022-11-28T05:39:52;8.27;;;5.63;;
39018;SDS011;24786;51.984;5.872;2022-11-28T05:42:18;6.97;;;5.90;;
39018;SDS011;24786;51.984;5.872;2022-11-28T05:44:43;9.55;;;5.72;;
39018;SDS011;24786;51.984;5.872;2022-11-28T05:47:09;9.88;;;6.22;;
39018;SDS011;24786;51.984;5.872;2022-11-28T05:49:35;7.22;;;5.53;;
39018;SDS011;24786;51.984;5.872;2022-11-28T05:52:00;9.75;;;5.93;;
39018;SDS011;24786;51.984;5.872;2022-11-28T05:54:26;9.23;;;5.57;;
39018;SDS011;24786;51.984;5.872;2022-11-28T05:56:52;10.32;;;5.60;;
39018;SDS011;24786;51.984;5.872;2022-11-28T05:59:17;7.50;;;5.80;;
39018;SDS011;24786;51.984;5.872;2022-11-28T06:01:43;7.13;;;5.10;;
39018;SDS011;24786;51.984;5.872;2022-11-28T06:04:08;7.20;;;5.50;;
39018;SDS011;24786;51.984;5.872;2022-11-28T06:06:34;8.00;;;5.07;;
39018;SDS011;24786;51.984;5.872;2022-11-28T06:09:01;6.70;;;5.15;;
39018;SDS011;24786;51.984;5.872;2022-11-28T06:11:28;6.60;;;4.78;;
39018;SDS011;24786;51.984;5.872;2022-11-28T06:13:55;6.55;;;5.05;;
39018;SDS011;24786;51.984;5.872;2022-11-28T06:16:21;7.88;;;5.60;;
39018;SDS011;24786;51.984;5.872;2022-11-28T06:18:55;6.93;;;5.05;;
39018;SDS011;24786;51.984;5.872;2022-11-28T06:21:23;5.55;;;4.63;;
39018;SDS011;24786;51.984;5.872;2022-11-28T06:23:49;5.30;;;4.72;;
39018;SDS011;24786;51.984;5.872;2022-11-28T06:26:16;5.57;;;4.78;;
39018;SDS011;24786;51.984;5.872;2022-11-28T06:28:44;5.75;;;4.85;;
39018;SDS011;24786;51.984;5.872;2022-11-28T06:31:14;5.05;;;4.55;;
39018;SDS011;24786;51.984;5.872;2022-11-28T06:33:40;6.80;;;4.35;;
39018;SDS011;24786;51.984;5.872;2022-11-28T06:36:07;5.60;;;4.55;;
39018;SDS011;24786;51.984;5.872;2022-11-28T06:38:34;5.68;;;4.20;;
39018;SDS011;24786;51.984;5.872;2022-11-28T06:41:04;7.30;;;5.00;;
39018;SDS011;24786;51.984;5.872;2022-11-28T06:43:31;5.10;;;4.50;;
39018;SDS011;24786;51.984;5.872;2022-11-28T06:45:57;7.28;;;4.88;;
39018;SDS011;24786;51.984;5.872;2022-11-28T06:48:22;5.80;;;4.65;;
39018;SDS011;24786;51.984;5.872;2022-11-28T06:50:48;6.50;;;5.35;;
39018;SDS011;24786;51.984;5.872;2022-11-28T06:53:14;6.05;;;5.03;;
39018;SDS011;24786;51.984;5.872;2022-11-28T06:55:40;6.85;;;5.10;;
39018;SDS011;24786;51.984;5.872;2022-11-28T06:58:06;6.40;;;5.30;;
39018;SDS011;24786;51.984;5.872;2022-11-28T07:00:32;8.73;;;5.85;;
39018;SDS011;24786;51.984;5.872;2022-11-28T07:02:58;7.00;;;5.40;;
39018;SDS011;24786;51.984;5.872;2022-11-28T07:05:24;7.97;;;5.47;;
39018;SDS011;24786;51.984;5.872;2022-11-28T07:07:54;5.85;;;5.25;;
39018;SDS011;24786;51.984;5.872;2022-11-28T07:10:20;5.32;;;4.70;;
39018;SDS011;24786;51.984;5.872;2022-11-28T07:12:47;5.45;;;4.72;;
39018;SDS011;24786;51.984;5.872;2022-11-28T07:15:20;6.00;;;4.85;;
39018;SDS011;24786;51.984;5.872;2022-11-28T07:17:46;5.65;;;5.15;;
39018;SDS011;24786;51.984;5.872;2022-11-28T07:20:12;5.95;;;4.95;;
39018;SDS011;24786;51.984;5.872;2022-11-28T07:22:38;6.85;;;5.57;;
39018;SDS011;24786;51.984;5.872;2022-11-28T07:25:07;6.13;;;5.28;;
39018;SDS011;24786;51.984;5.872;2022-11-28T07:27:33;6.75;;;5.20;;
39018;SDS011;24786;51.984;5.872;2022-11-28T07:29:58;6.75;;;5.50;;
39018;SDS011;24786;51.984;5.872;2022-11-28T07:32:24;7.20;;;5.75;;
39018;SDS011;24786;51.984;5.872;2022-11-28T07:34:49;10.25;;;5.35;;
39018;SDS011;24786;51.984;5.872;2022-11-28T07:37:15;7.13;;;5.35;;
39018;SDS011;24786;51.984;5.872;2022-11-28T07:39:40;9.40;;;5.95;;
39018;SDS011;24786;51.984;5.872;2022-11-28T07:42:08;7.60;;;6.20;;
39018;SDS011;24786;51.984;5.872;2022-11-28T07:44:34;6.82;;;5.35;;
39018;SDS011;24786;51.984;5.872;2022-11-28T07:47:00;8.40;;;6.03;;
39018;SDS011;24786;51.984;5.872;2022-11-28T07:49:25;8.00;;;5.70;;
39018;SDS011;24786;51.984;5.872;2022-11-28T07:51:51;6.85;;;5.43;;
39018;SDS011;24786;51.984;5.872;2022-11-28T07:54:17;6.85;;;5.22;;
39018;SDS011;24786;51.984;5.872;2022-11-28T07:56:43;6.03;;;5.13;;
39018;SDS011;24786;51.984;5.872;2022-11-28T07:59:09;6.57;;;5.20;;
39018;SDS011;24786;51.984;5.872;2022-11-28T08:01:37;7.18;;;5.10;;
39018;SDS011;24786;51.984;5.872;2022-11-28T08:04:04;6.57;;;5.63;;
39018;SDS011;24786;51.984;5.872;2022-11-28T08:06:33;6.55;;;5.50;;
39018;SDS011;24786;51.984;5.872;2022-11-28T08:09:01;5.57;;;4.80;;
39018;SDS011;24786;51.984;5.872;2022-11-28T08:11:27;6.93;;;5.13;;
39018;SDS011;24786;51.984;5.872;2022-11-28T08:13:54;7.35;;;5.75;;
39018;SDS011;24786;51.984;5.872;2022-11-28T08:16:21;6.25;;;5.10;;
39018;SDS011;24786;51.984;5.872;2022-11-28T08:18:48;7.25;;;5.70;;
39018;SDS011;24786;51.984;5.872;2022-11-28T08:21:16;7.63;;;5.55;;
39018;SDS011;24786;51.984;5.872;2022-11-28T08:23:43;6.60;;;5.60;;
39018;SDS011;24786;51.984;5.872;2022-11-28T08:26:10;7.57;;;6.10;;
39018;SDS011;24786;51.984;5.872;2022-11-28T08:28:38;8.10;;;5.53;;
39018;SDS011;24786;51.984;5.872;2022-11-28T08:31:09;6.05;;;5.20;;
39018;SDS011;24786;51.984;5.872;2022-11-28T08:33:34;7.07;;;5.47;;
39018;SDS011;24786;51.984;5.872;2022-11-28T08:36:02;8.05;;;5.85;;
39018;SDS011;24786;51.984;5.872;2022-11-28T08:38:29;8.43;;;5.95;;
39018;SDS011;24786;51.984;5.872;2022-11-28T08:41:01;7.50;;;5.47;;
39018;SDS011;24786;51.984;5.872;2022-11-28T08:43:28;7.55;;;5.38;;
39018;SDS011;24786;51.984;5.872;2022-11-28T08:45:53;7.70;;;5.45;;
39018;SDS011;24786;51.984;5.872;2022-11-28T08:48:19;7.28;;;5.90;;
39018;SDS011;24786;51.984;5.872;2022-11-28T08:50:45;7.88;;;6.15;;
39018;SDS011;24786;51.984;5.872;2022-11-28T08:53:11;8.63;;;6.15;;
39018;SDS011;24786;51.984;5.872;2022-11-28T08:55:39;7.78;;;6.32;;
39018;SDS011;24786;51.984;5.872;2022-11-28T08:58:05;10.35;;;7.20;;
39018;SDS011;24786;51.984;5.872;2022-11-28T09:00:31;9.13;;;6.32;;
39018;SDS011;24786;51.984;5.872;2022-11-28T09:02:56;9.13;;;6.40;;
39018;SDS011;24786;51.984;5.872;2022-11-28T09:05:22;9.88;;;7.22;;
39018;SDS011;24786;51.984;5.872;2022-11-28T09:07:47;11.18;;;6.40;;
39018;SDS011;24786;51.984;5.872;2022-11-28T09:10:13;8.30;;;6.20;;
39018;SDS011;24786;51.984;5.872;2022-11-28T09:12:39;9.63;;;6.55;;
39018;SDS011;24786;51.984;5.872;2022-11-28T09:15:04;10.43;;;6.55;;
39018;SDS011;24786;51.984;5.872;2022-11-28T09:17:30;9.15;;;6.95;;
39018;SDS011;24786;51.984;5.872;2022-11-28T09:19:56;8.63;;;6.15;;
39018;SDS011;24786;51.984;5.872;2022-11-28T09:22:21;9.68;;;6.88;;
39018;SDS011;24786;51.984;5.872;2022-11-28T09:24:47;7.43;;;6.10;;
39018;SDS011;24786;51.984;5.872;2022-11-28T09:27:13;9.10;;;6.35;;
39018;SDS011;24786;51.984;5.872;2022-11-28T09:29:38;9.30;;;6.70;;
39018;SDS011;24786;51.984;5.872;2022-11-28T09:32:04;8.88;;;7.10;;
39018;SDS011;24786;51.984;5.872;2022-11-28T09:34:29;9.27;;;6.70;;
39018;SDS011;24786;51.984;5.872;2022-11-28T09:36:55;10.18;;;7.22;;
39018;SDS011;24786;51.984;5.872;2022-11-28T09:39:20;8.90;;;6.75;;
39018;SDS011;24786;51.984;5.872;2022-11-28T09:44:36;9.35;;;6.47;;
39018;SDS011;24786;51.984;5.872;2022-11-28T09:47:24;9.40;;;6.88;;
39018;SDS011;24786;51.984;5.872;2022-11-28T09:49:56;9.43;;;6.70;;
39018;SDS011;24786;51.984;5.872;2022-11-28T09:52:33;8.23;;;5.97;;
39018;SDS011;24786;51.984;5.872;2022-11-28T09:55:32;8.65;;;5.97;;
39018;SDS011;24786;51.984;5.872;2022-11-28T10:06:33;7.00;;;5.15;;
39018;SDS011;24786;51.984;5.872;2022-11-28T10:21:11;7.00;;;5.40;;
39018;SDS011;24786;51.984;5.872;2022-11-28T10:23:57;7.55;;;5.25;;
39018;SDS011;24786;51.984;5.872;2022-11-28T10:26:33;7.15;;;5.45;;
39018;SDS011;24786;51.984;5.872;2022-11-28T10:29:12;7.45;;;5.10;;
39018;SDS011;24786;51.984;5.872;2022-11-28T10:31:46;6.78;;;5.50;;
39018;SDS011;24786;51.984;5.872;2022-11-28T10:34:18;7.25;;;5.43;;
39018;SDS011;24786;51.984;5.872;2022-11-28T10:37:08;6.82;;;5.28;;
39018;SDS011;24786;51.984;5.872;2022-11-28T10:39:40;7.18;;;5.30;;
39018;SDS011;24786;51.984;5.872;2022-11-28T10:45:09;6.25;;;5.30;;
39018;SDS011;24786;51.984;5.872;2022-11-28T10:48:52;7.18;;;5.32;;
39018;SDS011;24786;51.984;5.872;2022-11-28T10:50:56;6.95;;;5.60;;
39018;SDS011;24786;51.984;5.872;2022-11-28T10:56:45;7.93;;;5.55;;
39018;SDS011;24786;51.984;5.872;2022-11-28T10:59:32;7.15;;;5.88;;
39018;SDS011;24786;51.984;5.872;2022-11-28T11:02:20;9.60;;;6.35;;
39018;SDS011;24786;51.984;5.872;2022-11-28T11:04:50;8.07;;;6.03;;
39018;SDS011;24786;51.984;5.872;2022-11-28T11:07:17;9.10;;;5.63;;
39018;SDS011;24786;51.984;5.872;2022-11-28T11:09:48;11.68;;;6.28;;
39018;SDS011;24786;51.984;5.872;2022-11-28T11:12:20;11.25;;;6.05;;
39018;SDS011;24786;51.984;5.872;2022-11-28T11:14:50;8.23;;;5.45;;
39018;SDS011;24786;51.984;5.872;2022-11-28T11:17:23;10.40;;;7.00;;
39018;SDS011;24786;51.984;5.872;2022-11-28T11:19:57;10.38;;;6.57;;
39018;SDS011;24786;51.984;5.872;2022-11-28T11:22:25;9.75;;;6.68;;
39018;SDS011;24786;51.984;5.872;2022-11-28T11:25:03;10.48;;;7.43;;
39018;SDS011;24786;51.984;5.872;2022-11-28T11:27:30;10.43;;;6.80;;
39018;SDS011;24786;51.984;5.872;2022-11-28T11:29:56;9.25;;;6.85;;
39018;SDS011;24786;51.984;5.872;2022-11-28T11:32:24;12.68;;;7.75;;
39018;SDS011;24786;51.984;5.872;2022-11-28T11:34:53;11.20;;;7.82;;
39018;SDS011;24786;51.984;5.872;2022-11-28T11:39:57;10.50;;;7.30;;
39018;SDS011;24786;51.984;5.872;2022-11-28T11:42:31;10.45;;;7.18;;
39018;SDS011;24786;51.984;5.872;2022-11-28T11:47:56;9.85;;;6.85;;
39018;SDS011;24786;51.984;5.872;2022-11-28T11:50:23;12.52;;;7.30;;
39018;SDS011;24786;51.984;5.872;2022-11-28T11:53:10;11.60;;;7.57;;
39018;SDS011;24786;51.984;5.872;2022-11-28T11:58:24;10.18;;;7.30;;
39018;SDS011;24786;51.984;5.872;2022-11-28T12:00:55;11.32;;;7.55;;
39018;SDS011;24786;51.984;5.872;2022-11-28T12:03:31;13.35;;;7.82;;
39018;SDS011;24786;51.984;5.872;2022-11-28T12:06:12;13.57;;;8.10;;
39018;SDS011;24786;51.984;5.872;2022-11-28T12:08:50;12.25;;;7.90;;
39018;SDS011;24786;51.984;5.872;2022-11-28T12:11:37;11.68;;;7.43;;
39018;SDS011;24786;51.984;5.872;2022-11-28T12:36:42;12.68;;;8.15;;
39018;SDS011;24786;51.984;5.872;2022-11-28T12:42:00;12.35;;;8.05;;
39018;SDS011;24786;51.984;5.872;2022-11-28T12:47:37;14.98;;;8.68;;
39018;SDS011;24786;51.984;5.872;2022-11-28T12:50:44;12.30;;;8.18;;
39018;SDS011;24786;51.984;5.872;2022-11-28T13:12:41;10.90;;;7.65;;
39018;SDS011;24786;51.984;5.872;2022-11-28T13:18:32;12.38;;;8.15;;
39018;SDS011;24786;51.984;5.872;2022-11-28T13:21:05;11.68;;;7.90;;
39018;SDS011;24786;51.984;5.872;2022-11-28T13:23:40;10.93;;;7.93;;
39018;SDS011;24786;51.984;5.872;2022-11-28T13:26:36;10.45;;;7.22;;
39018;SDS011;24786;51.984;5.872;2022-11-28T13:29:30;10.95;;;7.72;;
39018;SDS011;24786;51.984;5.872;2022-11-28T13:32:11;11.27;;;7.50;;
39018;SDS011;24786;51.984;5.872;2022-11-28T13:34:59;11.30;;;7.25;;
39018;SDS011;24786;51.984;5.872;2022-11-28T13:37:48;11.52;;;7.60;;
39018;SDS011;24786;51.984;5.872;2022-11-28T13:42:51;12.02;;;7.78;;
39018;SDS011;24786;51.984;5.872;2022-11-28T13:47:57;11.43;;;7.07;;
39018;SDS011;24786;51.984;5.872;2022-11-28T13:50:31;12.55;;;7.57;;
39018;SDS011;24786;51.984;5.872;2022-11-28T13:55:56;12.27;;;8.10;;
39018;SDS011;24786;51.984;5.872;2022-11-28T14:01:29;11.02;;;7.75;;
39018;SDS011;24786;51.984;5.872;2022-11-28T14:04:16;12.18;;;7.82;;
39018;SDS011;24786;51.984;5.872;2022-11-28T14:23:46;14.30;;;7.68;;
39018;SDS011;24786;51.984;5.872;2022-11-28T14:26:34;15.43;;;9.13;;
39018;SDS011;24786;51.984;5.872;2022-11-28T14:37:52;18.88;;;8.80;;
39018;SDS011;24786;51.984;5.872;2022-11-28T14:41:03;15.40;;;9.00;;
39018;SDS011;24786;51.984;5.872;2022-11-28T14:43:24;17.10;;;9.10;;
39018;SDS011;24786;51.984;5.872;2022-11-28T14:45:51;17.45;;;9.63;;
39018;SDS011;24786;51.984;5.872;2022-11-28T14:49:21;16.92;;;9.30;;
39018;SDS011;24786;51.984;5.872;2022-11-28T14:57:24;17.23;;;9.40;;
39018;SDS011;24786;51.984;5.872;2022-11-28T14:59:56;21.75;;;10.07;;
39018;SDS011;24786;51.984;5.872;2022-11-28T15:05:10;19.80;;;10.82;;
39018;SDS011;24786;51.984;5.872;2022-11-28T15:07:53;22.55;;;11.50;;
39018;SDS011;24786;51.984;5.872;2022-11-28T15:16:01;21.77;;;11.90;;
39018;SDS011;24786;51.984;5.872;2022-11-28T15:18:29;24.00;;;11.65;;
39018;SDS011;24786;51.984;5.872;2022-11-28T15:20:57;22.35;;;12.10;;
39018;SDS011;24786;51.984;5.872;2022-11-28T15:23:30;24.08;;;12.48;;
39018;SDS011;24786;51.984;5.872;2022-11-28T15:25:58;21.35;;;11.23;;
39018;SDS011;24786;51.984;5.872;2022-11-28T15:28:25;22.55;;;11.80;;
39018;SDS011;24786;51.984;5.872;2022-11-28T15:30:53;24.85;;;12.43;;
39018;SDS011;24786;51.984;5.872;2022-11-28T15:33:21;27.07;;;13.23;;
39018;SDS011;24786;51.984;5.872;2022-11-28T15:35:59;26.35;;;13.38;;
39018;SDS011;24786;51.984;5.872;2022-11-28T15:38:40;26.08;;;12.25;;
39018;SDS011;24786;51.984;5.872;2022-11-28T15:41:07;27.70;;;12.90;;
39018;SDS011;24786;51.984;5.872;2022-11-28T15:43:35;27.58;;;13.35;;
39018;SDS011;24786;51.984;5.872;2022-11-28T15:46:02;27.45;;;12.90;;
39018;SDS011;24786;51.984;5.872;2022-11-28T15:48:36;27.25;;;13.02;;
39018;SDS011;24786;51.984;5.872;2022-11-28T15:51:27;26.20;;;11.90;;
39018;SDS011;24786;51.984;5.872;2022-11-28T15:53:54;27.50;;;13.52;;
39018;SDS011;24786;51.984;5.872;2022-11-28T15:56:20;30.38;;;13.82;;
39018;SDS011;24786;51.984;5.872;2022-11-28T15:58:46;33.50;;;15.55;;
39018;SDS011;24786;51.984;5.872;2022-11-28T16:03:49;38.33;;;15.80;;
39018;SDS011;24786;51.984;5.872;2022-11-28T16:06:19;35.28;;;14.55;;
39018;SDS011;24786;51.984;5.872;2022-11-28T16:11:15;44.05;;;18.65;;
39018;SDS011;24786;51.984;5.872;2022-11-28T16:13:43;47.85;;;19.95;;
39018;SDS011;24786;51.984;5.872;2022-11-28T16:16:10;46.92;;;18.90;;
39018;SDS011;24786;51.984;5.872;2022-11-28T16:18:47;42.47;;;19.73;;
39018;SDS011;24786;51.984;5.872;2022-11-28T16:21:29;42.50;;;20.48;;
39018;SDS011;24786;51.984;5.872;2022-11-28T16:23:58;45.70;;;20.10;;
39018;SDS011;24786;51.984;5.872;2022-11-28T16:26:29;43.60;;;19.38;;
39018;SDS011;24786;51.984;5.872;2022-11-28T16:29:08;47.05;;;20.83;;
39018;SDS011;24786;51.984;5.872;2022-11-28T16:31:37;49.45;;;21.48;;
39018;SDS011;24786;51.984;5.872;2022-11-28T16:34:03;49.53;;;20.80;;
39018;SDS011;24786;51.984;5.872;2022-11-28T16:36:36;51.75;;;22.25;;
39018;SDS011;24786;51.984;5.872;2022-11-28T16:39:04;61.28;;;24.05;;
39018;SDS011;24786;51.984;5.872;2022-11-28T16:41:30;57.80;;;24.05;;
39018;SDS011;24786;51.984;5.872;2022-11-28T16:43:59;57.95;;;25.23;;
39018;SDS011;24786;51.984;5.872;2022-11-28T16:46:32;58.72;;;24.58;;
39018;SDS011;24786;51.984;5.872;2022-11-28T16:48:59;55.58;;;24.23;;
39018;SDS011;24786;51.984;5.872;2022-11-28T16:51:30;61.53;;;23.75;;
39018;SDS011;24786;51.984;5.872;2022-11-28T16:54:22;55.97;;;25.13;;
39018;SDS011;24786;51.984;5.872;2022-11-28T16:56:58;58.67;;;24.23;;
39018;SDS011;24786;51.984;5.872;2022-11-28T16:59:33;56.33;;;24.90;;
39018;SDS011;24786;51.984;5.872;2022-11-28T17:01:59;55.78;;;25.83;;
39018;SDS011;24786;51.984;5.872;2022-11-28T17:04:25;64.63;;;25.85;;
39018;SDS011;24786;51.984;5.872;2022-11-28T17:06:54;62.55;;;25.45;;
39018;SDS011;24786;51.984;5.872;2022-11-28T17:09:21;69.93;;;29.67;;
39018;SDS011;24786;51.984;5.872;2022-11-28T17:11:49;61.78;;;26.98;;
39018;SDS011;24786;51.984;5.872;2022-11-28T17:14:22;73.50;;;28.50;;
39018;SDS011;24786;51.984;5.872;2022-11-28T17:16:47;68.95;;;27.00;;
39018;SDS011;24786;51.984;5.872;2022-11-28T17:19:13;67.70;;;28.17;;
39018;SDS011;24786;51.984;5.872;2022-11-28T17:21:45;68.75;;;29.27;;
39018;SDS011;24786;51.984;5.872;2022-11-28T17:24:16;68.03;;;28.45;;
39018;SDS011;24786;51.984;5.872;2022-11-28T17:26:47;60.25;;;26.25;;
39018;SDS011;24786;51.984;5.872;2022-11-28T17:29:14;65.57;;;28.30;;
39018;SDS011;24786;51.984;5.872;2022-11-28T17:31:40;70.75;;;27.67;;
39018;SDS011;24786;51.984;5.872;2022-11-28T17:34:17;71.47;;;29.08;;
39018;SDS011;24786;51.984;5.872;2022-11-28T17:36:44;78.00;;;29.48;;
39018;SDS011;24786;51.984;5.872;2022-11-28T17:39:10;71.25;;;30.40;;
39018;SDS011;24786;51.984;5.872;2022-11-28T17:41:36;66.57;;;27.08;;
39018;SDS011;24786;51.984;5.872;2022-11-28T17:44:02;62.25;;;28.50;;
39018;SDS011;24786;51.984;5.872;2022-11-28T17:46:28;71.72;;;31.17;;
39018;SDS011;24786;51.984;5.872;2022-11-28T17:48:54;71.57;;;30.50;;
39018;SDS011;24786;51.984;5.872;2022-11-28T17:51:21;78.43;;;30.45;;
39018;SDS011;24786;51.984;5.872;2022-11-28T17:53:47;76.68;;;32.17;;
39018;SDS011;24786;51.984;5.872;2022-11-28T17:56:12;77.85;;;29.45;;
39018;SDS011;24786;51.984;5.872;2022-11-28T17:58:38;68.68;;;30.45;;
39018;SDS011;24786;51.984;5.872;2022-11-28T18:01:10;72.80;;;29.98;;
39018;SDS011;24786;51.984;5.872;2022-11-28T18:03:38;83.63;;;30.25;;
39018;SDS011;24786;51.984;5.872;2022-11-28T18:06:04;79.93;;;30.65;;
39018;SDS011;24786;51.984;5.872;2022-11-28T18:08:30;68.32;;;30.00;;
39018;SDS011;24786;51.984;5.872;2022-11-28T18:11:07;69.07;;;29.02;;
39018;SDS011;24786;51.984;5.872;2022-11-28T18:13:34;76.82;;;30.85;;
39018;SDS011;24786;51.984;5.872;2022-11-28T18:16:00;69.70;;;30.58;;
39018;SDS011;24786;51.984;5.872;2022-11-28T18:18:26;79.28;;;30.20;;
39018;SDS011;24786;51.984;5.872;2022-11-28T18:20:53;70.25;;;31.45;;